createdAt,value
2023-03-04T00:02:10.034Z,75.07
2023-03-04T00:04:36.529Z,73.38
2023-03-04T00:07:03.640Z,73.74
2023-03-04T00:09:31.688Z,74.80
2023-03-04T00:11:58.870Z,74.61
2023-03-04T00:14:26.645Z,75.56
2023-03-04T00:16:54.299Z,75.55
2023-03-04T00:19:21.258Z,74.62
2023-03-04T00:21:47.760Z,74.67
2023-03-04T00:24:14.526Z,73.89
2023-03-04T00:26:42.510Z,73.50
2023-03-04T00:29:09.191Z,74.98
2023-03-04T00:31:35.794Z,74.58
2023-03-04T00:34:02.264Z,74.37
2023-03-04T00:36:29.392Z,73.52
2023-03-04T00:38:55.885Z,74.85
2023-03-04T00:41:22.835Z,74.70
2023-03-04T00:43:49.982Z,74.40
2023-03-04T00:46:17.070Z,73.14
2023-03-04T00:48:44.866Z,74.48
2023-03-04T00:51:11.447Z,73.51
2023-03-04T00:53:38.056Z,73.28
2023-03-04T00:56:04.754Z,73.68
2023-03-04T00:58:31.740Z,74.13
2023-03-04T01:00:58.266Z,74.93
2023-03-04T01:03:26.920Z,74.20
2023-03-04T01:05:53.390Z,74.19
2023-03-04T01:08:19.872Z,75.96
2023-03-04T01:10:46.342Z,75.80
2023-03-04T01:13:12.817Z,74.74
2023-03-04T01:15:39.435Z,75.75
2023-03-04T01:18:05.934Z,76.56
2023-03-04T01:20:32.419Z,75.56
2023-03-04T01:22:58.894Z,75.48
2023-03-04T01:25:25.550Z,76.71
2023-03-04T01:27:52.007Z,77.06
2023-03-04T01:30:18.516Z,76.13
2023-03-04T01:32:44.989Z,77.11
2023-03-04T01:35:11.658Z,76.05
2023-03-04T01:37:38.290Z,77.84
2023-03-04T01:40:05.822Z,74.80
2023-03-04T01:42:34.948Z,77.32
2023-03-04T01:45:01.765Z,76.12
2023-03-04T01:47:29.973Z,77.21
2023-03-04T01:49:57.590Z,75.85
2023-03-04T01:52:24.674Z,77.75
2023-03-04T01:54:51.168Z,77.53
2023-03-04T01:57:26.750Z,76.99
2023-03-04T02:00:18.596Z,77.81
2023-03-04T02:02:45.686Z,78.00
2023-03-04T02:05:12.598Z,77.58
2023-03-04T02:07:39.100Z,77.60
2023-03-04T02:10:06.053Z,75.69
2023-03-04T02:12:32.860Z,76.79
2023-03-04T02:14:59.400Z,76.42
2023-03-04T02:17:27.007Z,77.07
2023-03-04T02:19:59.987Z,76.98
2023-03-04T02:22:27.112Z,77.78
2023-03-04T02:24:59.455Z,78.58
2023-03-04T02:27:27.282Z,78.53
2023-03-04T02:29:53.817Z,79.37
2023-03-04T02:32:20.382Z,78.24
2023-03-04T02:34:49.405Z,77.79
2023-03-04T02:37:17.464Z,78.67
2023-03-04T02:39:45.760Z,77.99
2023-03-04T02:42:12.743Z,76.73
2023-03-04T02:44:43.779Z,77.44
2023-03-04T02:47:11.744Z,77.87
2023-03-04T02:49:40.008Z,77.55
2023-03-04T02:52:09.439Z,78.18
2023-03-04T02:54:37.340Z,77.60
2023-03-04T02:57:06.963Z,76.11
2023-03-04T02:59:33.950Z,74.81
2023-03-04T03:02:00.489Z,74.95
2023-03-04T03:04:27.157Z,73.38
2023-03-04T03:06:53.692Z,73.50
2023-03-04T03:09:20.270Z,74.05
2023-03-04T03:11:46.927Z,76.18
2023-03-04T03:14:13.429Z,76.29
2023-03-04T03:16:39.899Z,77.99
2023-03-04T03:19:06.388Z,77.55
2023-03-04T03:21:32.839Z,77.48
2023-03-04T03:23:59.355Z,75.77
2023-03-04T03:26:25.963Z,77.36
2023-03-04T03:28:52.434Z,77.25
2023-03-04T03:31:20.063Z,75.46
2023-03-04T03:33:46.779Z,74.76
2023-03-04T03:36:13.345Z,74.12
2023-03-04T03:38:39.849Z,73.12
2023-03-04T03:41:06.310Z,72.73
2023-03-04T03:43:32.799Z,72.12
2023-03-04T03:45:59.326Z,72.83
2023-03-04T03:48:25.795Z,73.83
2023-03-04T03:50:52.270Z,74.80
2023-03-04T03:53:18.748Z,74.22
2023-03-04T03:55:45.227Z,72.61
2023-03-04T03:58:11.756Z,70.19
2023-03-04T04:00:38.243Z,69.83
2023-03-04T04:03:04.757Z,68.57
2023-03-04T04:05:31.376Z,68.79
2023-03-04T04:07:57.819Z,67.97
2023-03-04T04:10:24.318Z,68.21
2023-03-04T04:12:50.799Z,68.15
2023-03-04T04:15:17.249Z,68.08
2023-03-04T04:17:43.722Z,67.37
2023-03-04T04:20:10.761Z,67.59
2023-03-04T04:22:37.213Z,68.58
2023-03-04T04:25:05.111Z,68.67
2023-03-04T04:27:31.596Z,68.77
2023-03-04T04:29:58.104Z,68.38
2023-03-04T04:32:24.604Z,67.72
2023-03-04T04:34:51.114Z,67.35
2023-03-04T04:37:17.577Z,66.98
2023-03-04T04:39:44.076Z,67.26
2023-03-04T04:42:11.499Z,66.45
2023-03-04T04:44:39.102Z,66.41
2023-03-04T04:47:09.611Z,66.83
2023-03-04T04:49:36.081Z,67.15
2023-03-04T04:52:02.762Z,65.42
2023-03-04T04:54:29.252Z,66.02
2023-03-04T04:56:55.753Z,65.67
2023-03-04T04:59:23.383Z,66.44
2023-03-04T05:01:49.892Z,66.61
2023-03-04T05:04:16.386Z,66.89
2023-03-04T05:06:43.130Z,66.78
2023-03-04T05:09:09.667Z,66.70
2023-03-04T05:11:36.145Z,66.14
2023-03-04T05:14:02.614Z,66.90
2023-03-04T05:16:29.083Z,66.85
2023-03-04T05:18:55.531Z,66.55
2023-03-04T05:21:22.037Z,66.44
2023-03-04T05:23:48.644Z,67.22
2023-03-04T05:26:16.769Z,68.27
2023-03-04T05:28:43.468Z,68.34
2023-03-04T05:31:10.757Z,67.59
2023-03-04T05:33:37.499Z,67.13
2023-03-04T05:36:05.511Z,67.30
2023-03-04T05:38:32.296Z,68.19
2023-03-04T05:41:04.097Z,68.25
2023-03-04T05:43:31.589Z,67.39
2023-03-04T05:45:58.169Z,67.60
2023-03-04T05:48:24.615Z,67.81
2023-03-04T05:50:55.558Z,67.59
2023-03-04T05:53:22.857Z,67.61
2023-03-04T05:55:49.789Z,66.84
2023-03-04T05:58:16.984Z,68.10
2023-03-04T06:00:43.694Z,67.87
2023-03-04T06:03:18.710Z,68.18
2023-03-04T06:05:45.260Z,66.88
2023-03-04T06:08:12.708Z,67.74
2023-03-04T06:10:40.340Z,67.89
2023-03-04T06:13:07.258Z,67.77
2023-03-04T06:15:34.211Z,68.54
2023-03-04T06:18:00.680Z,66.94
2023-03-04T06:20:27.220Z,67.97
2023-03-04T06:22:53.700Z,68.08
2023-03-04T06:25:20.629Z,67.49
2023-03-04T06:27:48.018Z,68.08
2023-03-04T06:30:16.291Z,68.81
2023-03-04T06:32:44.404Z,68.01
2023-03-04T06:35:12.037Z,68.93
2023-03-04T06:37:38.638Z,67.62
2023-03-04T06:40:07.675Z,67.70
2023-03-04T06:42:35.265Z,66.69
2023-03-04T06:45:01.869Z,66.98
2023-03-04T06:47:28.398Z,66.37
2023-03-04T06:49:54.867Z,66.89
2023-03-04T06:52:21.317Z,66.83
2023-03-04T06:54:47.791Z,65.96
2023-03-04T06:57:14.318Z,66.49
2023-03-04T06:59:40.834Z,66.07
2023-03-04T07:02:11.319Z,66.25
2023-03-04T07:04:38.112Z,66.47
2023-03-04T07:07:04.636Z,65.78
2023-03-04T07:09:31.153Z,66.64
2023-03-04T07:11:57.668Z,66.24
2023-03-04T07:14:24.385Z,66.86
2023-03-04T07:16:50.892Z,65.34
2023-03-04T07:19:17.869Z,64.38
2023-03-04T07:21:44.428Z,63.71
2023-03-04T07:24:10.924Z,63.10
2023-03-04T07:26:38.329Z,63.46
2023-03-04T07:29:05.262Z,64.73
2023-03-04T07:31:33.731Z,64.30
2023-03-04T07:34:02.424Z,63.57
2023-03-04T07:36:29.086Z,63.16
2023-03-04T07:38:55.703Z,63.85
2023-03-04T07:41:24.116Z,63.81
2023-03-04T07:43:51.075Z,63.86
2023-03-04T07:46:18.604Z,64.08
2023-03-04T07:48:45.098Z,62.74
2023-03-04T07:51:14.312Z,63.17
2023-03-04T07:53:42.483Z,63.59
2023-03-04T07:56:12.256Z,63.29
2023-03-04T07:58:38.747Z,62.19
2023-03-04T08:01:10.625Z,62.29
2023-03-04T08:03:37.108Z,64.06
2023-03-04T08:06:12.562Z,63.25
2023-03-04T08:08:39.261Z,62.08
2023-03-04T08:11:12.450Z,61.64
2023-03-04T08:13:38.923Z,62.18
2023-03-04T08:16:06.080Z,61.65
2023-03-04T08:18:32.770Z,61.69
2023-03-04T08:20:59.690Z,62.46
2023-03-04T08:23:27.029Z,61.73
2023-03-04T08:25:53.528Z,61.20
2023-03-04T08:28:20.123Z,63.07
2023-03-04T08:30:52.775Z,62.50
2023-03-04T08:33:19.269Z,62.94
2023-03-04T08:35:45.772Z,63.39
2023-03-04T08:38:12.255Z,63.29
2023-03-04T08:40:38.731Z,62.49
2023-03-04T08:43:07.173Z,63.04
2023-03-04T08:45:34.798Z,63.49
2023-03-04T08:48:01.253Z,62.80
2023-03-04T08:50:28.005Z,62.37
2023-03-04T08:52:54.991Z,63.32
2023-03-04T08:55:21.793Z,62.41
2023-03-04T08:57:48.238Z,62.14
2023-03-04T09:00:15.149Z,62.49
2023-03-04T09:02:41.607Z,61.10
2023-03-04T09:05:08.795Z,60.70
2023-03-04T09:07:36.017Z,60.85
2023-03-04T09:10:02.623Z,60.85
2023-03-04T09:12:29.114Z,60.63
2023-03-04T09:15:09.819Z,60.83
2023-03-04T09:17:40.406Z,60.75
2023-03-04T09:20:11.432Z,59.85
2023-03-04T09:22:38.989Z,60.57
2023-03-04T09:25:08.920Z,60.60
2023-03-04T09:27:38.012Z,60.43
2023-03-04T09:30:05.206Z,58.91
2023-03-04T09:32:31.730Z,58.39
2023-03-04T09:34:58.255Z,57.23
2023-03-04T09:37:24.740Z,58.17
2023-03-04T09:39:51.330Z,58.65
2023-03-04T09:42:47.772Z,57.51
2023-03-04T09:45:19.014Z,58.45
2023-03-04T09:47:46.506Z,58.17
2023-03-04T09:50:13.603Z,59.43
2023-03-04T09:53:07.637Z,58.39
2023-03-04T09:55:38.332Z,57.74
2023-03-04T09:58:17.016Z,57.26
2023-03-04T10:01:00.612Z,57.38
2023-03-04T10:04:12.311Z,56.42
2023-03-04T10:06:39.835Z,56.37
2023-03-04T10:09:13.096Z,56.38
2023-03-04T10:11:46.733Z,56.30
2023-03-04T10:14:16.198Z,56.32
2023-03-04T10:16:45.849Z,54.86
2023-03-04T10:19:15.485Z,53.89
2023-03-04T10:21:44.728Z,55.72
2023-03-04T10:24:22.681Z,55.59
2023-03-04T10:26:52.862Z,55.94
2023-03-04T10:29:22.071Z,56.04
2023-03-04T10:31:49.750Z,53.77
2023-03-04T10:34:17.794Z,52.73
2023-03-04T10:36:48.507Z,54.38
2023-03-04T10:39:32.891Z,54.21
2023-03-04T10:42:01.902Z,53.78
2023-03-04T10:44:29.447Z,53.28
2023-03-04T10:46:58.146Z,53.25
2023-03-04T10:49:25.678Z,53.28
2023-03-04T10:52:26.987Z,53.26
2023-03-04T10:54:58.900Z,55.31
2023-03-04T10:57:42.261Z,54.83
2023-03-04T11:00:17.910Z,51.94
2023-03-04T11:02:46.010Z,53.18
2023-03-04T11:05:12.401Z,52.75
2023-03-04T11:07:57.524Z,52.48
2023-03-04T11:10:31.710Z,51.67
2023-03-04T11:13:18.406Z,51.39
2023-03-04T11:15:58.033Z,54.92
2023-03-04T11:18:34.150Z,54.35
2023-03-04T11:21:03.956Z,55.46
2023-03-04T11:24:13.381Z,54.54
2023-03-04T11:26:53.151Z,55.08
2023-03-04T11:30:02.015Z,55.63
2023-03-04T11:32:34.185Z,54.74
2023-03-04T11:35:32.482Z,54.61
2023-03-04T11:38:21.784Z,54.59
2023-03-04T11:40:54.674Z,54.85
2023-03-04T11:43:37.980Z,55.21
2023-03-04T11:46:42.507Z,53.79
2023-03-04T11:49:33.786Z,53.51
2023-03-04T11:52:18.506Z,52.18
2023-03-04T11:55:09.460Z,52.91
2023-03-04T11:57:52.228Z,52.43
2023-03-04T12:00:41.117Z,52.98
2023-03-04T12:03:26.362Z,52.58
2023-03-04T12:06:03.287Z,52.76
2023-03-04T12:08:39.069Z,51.40
2023-03-04T12:11:20.648Z,49.91
2023-03-04T12:14:14.860Z,51.36
2023-03-04T12:17:02.656Z,51.69
2023-03-04T12:19:59.800Z,50.58
2023-03-04T12:22:41.427Z,49.40
2023-03-04T12:25:29.895Z,49.76
2023-03-04T12:28:28.982Z,50.26
2023-03-04T12:31:10.057Z,50.11
2023-03-04T12:33:50.709Z,50.65
2023-03-04T12:36:23.305Z,50.45
2023-03-04T12:39:00.203Z,51.55
2023-03-04T12:41:29.555Z,51.57
2023-03-04T12:44:20.488Z,51.53
2023-03-04T12:47:11.632Z,50.27
2023-03-04T12:50:04.577Z,49.25
2023-03-04T12:52:40.899Z,51.71
2023-03-04T12:55:14.527Z,51.58
2023-03-04T12:57:41.120Z,51.25
2023-03-04T13:00:31.099Z,49.54
2023-03-04T13:03:26.284Z,50.23
2023-03-04T13:06:20.995Z,50.98
2023-03-04T13:08:54.863Z,49.78
2023-03-04T13:11:28.180Z,50.21
2023-03-04T13:14:18.352Z,51.03
2023-03-04T13:16:48.972Z,49.92
2023-03-04T13:19:45.040Z,50.79
2023-03-04T13:22:38.942Z,51.58
2023-03-04T13:25:30.857Z,52.10
2023-03-04T13:28:00.561Z,50.25
2023-03-04T13:30:34.697Z,51.54
2023-03-04T13:33:11.065Z,50.55
2023-03-04T13:35:47.265Z,50.83
2023-03-04T13:38:24.607Z,51.67
2023-03-04T13:41:00.622Z,51.77
2023-03-04T13:43:36.777Z,51.45
2023-03-04T13:46:24.113Z,53.00
2023-03-04T13:48:50.788Z,51.57
2023-03-04T13:51:41.571Z,51.99
2023-03-04T13:54:14.932Z,51.02
2023-03-04T13:56:42.836Z,50.76
2023-03-04T13:59:09.318Z,51.81
2023-03-04T14:01:43.252Z,52.72
2023-03-04T14:04:29.632Z,50.71
2023-03-04T14:07:01.218Z,50.99
2023-03-04T14:09:30.713Z,50.74
2023-03-04T14:12:03.804Z,51.71
2023-03-04T14:14:37.540Z,52.26
2023-03-04T14:17:05.582Z,53.71
2023-03-04T14:19:43.917Z,54.05
2023-03-04T14:22:31.388Z,52.83
2023-03-04T14:25:03.773Z,53.11
2023-03-04T14:27:33.723Z,53.74
2023-03-04T14:30:02.010Z,52.02
2023-03-04T14:32:29.348Z,52.63
2023-03-04T14:35:07.763Z,52.91
2023-03-04T14:38:04.417Z,53.41
2023-03-04T14:40:39.063Z,53.13
2023-03-04T14:43:10.987Z,53.42
2023-03-04T14:45:37.652Z,53.84
2023-03-04T14:48:07.920Z,53.50
2023-03-04T14:50:36.174Z,52.81
2023-03-04T14:53:07.143Z,52.23
2023-03-04T14:55:33.830Z,51.95
2023-03-04T14:58:07.773Z,52.17
2023-03-04T15:00:42.053Z,52.23
2023-03-04T15:03:22.032Z,52.32
2023-03-04T15:05:49.225Z,52.76
2023-03-04T15:08:37.492Z,52.66
2023-03-04T15:11:06.101Z,52.69
2023-03-04T15:13:46.018Z,52.79
2023-03-04T15:16:14.726Z,52.88
2023-03-04T15:18:57.460Z,52.64
2023-03-04T15:21:31.740Z,54.35
2023-03-04T15:23:58.258Z,54.73
2023-03-04T15:26:24.846Z,56.71
2023-03-04T15:28:51.421Z,57.45
2023-03-04T15:31:21.104Z,57.50
2023-03-04T15:33:47.855Z,56.55
2023-03-04T15:36:16.845Z,58.13
2023-03-04T15:38:49.777Z,59.66
2023-03-04T15:41:23.520Z,58.96
2023-03-04T15:43:50.633Z,58.26
2023-03-04T15:46:18.136Z,59.82
2023-03-04T15:48:45.687Z,58.15
2023-03-04T15:51:21.524Z,60.02
2023-03-04T15:53:52.852Z,59.37
2023-03-04T15:56:21.490Z,58.50
2023-03-04T15:59:01.744Z,60.47
2023-03-04T16:01:28.277Z,59.81
2023-03-04T16:03:54.831Z,58.62
2023-03-04T16:06:23.564Z,59.51
2023-03-04T16:08:50.682Z,60.31
2023-03-04T16:11:19.391Z,59.74
2023-03-04T16:13:45.879Z,58.75
2023-03-04T16:16:13.400Z,59.68
2023-03-04T16:18:40.661Z,59.18
2023-03-04T16:21:08.388Z,59.18
2023-03-04T16:23:39.618Z,58.71
2023-03-04T16:26:12.455Z,58.91
2023-03-04T16:28:38.916Z,58.49
2023-03-04T16:31:06.577Z,59.05
2023-03-04T16:33:33.060Z,58.31
2023-03-04T16:35:59.678Z,58.07
2023-03-04T16:38:29.843Z,57.75
2023-03-04T16:40:57.041Z,58.35
2023-03-04T16:43:24.318Z,58.50
2023-03-04T16:45:50.808Z,57.86
2023-03-04T16:48:17.350Z,58.37
2023-03-04T16:50:44.572Z,58.11
2023-03-04T16:53:24.896Z,56.92
2023-03-04T16:55:51.678Z,57.91
2023-03-04T16:58:18.178Z,57.59
2023-03-04T17:00:44.701Z,56.47
2023-03-04T17:03:11.515Z,57.34
2023-03-04T17:05:38.108Z,57.49
2023-03-04T17:08:04.654Z,56.51
2023-03-04T17:10:31.127Z,57.31
2023-03-04T17:12:57.586Z,57.90
2023-03-04T17:15:24.194Z,57.98
2023-03-04T17:17:52.637Z,57.25
2023-03-04T17:20:19.854Z,57.33
2023-03-04T17:22:46.342Z,58.13
2023-03-04T17:25:14.120Z,58.65
2023-03-04T17:27:41.132Z,57.80
2023-03-04T17:30:11.377Z,58.10
2023-03-04T17:32:39.517Z,58.15
2023-03-04T17:35:08.086Z,58.00
2023-03-04T17:37:35.558Z,58.50
2023-03-04T17:40:08.601Z,58.50
2023-03-04T17:42:35.178Z,58.12
2023-03-04T17:45:01.681Z,58.75
2023-03-04T17:47:28.134Z,58.18
2023-03-04T17:49:54.623Z,58.49
2023-03-04T17:52:21.525Z,58.60
2023-03-04T17:54:48.081Z,60.12
2023-03-04T17:57:14.581Z,59.41
2023-03-04T17:59:41.130Z,58.69
2023-03-04T18:02:08.034Z,59.18
2023-03-04T18:04:35.297Z,57.99
2023-03-04T18:07:01.790Z,59.09
2023-03-04T18:09:28.274Z,59.28
2023-03-04T18:11:54.765Z,58.14
2023-03-04T18:14:21.285Z,58.04
2023-03-04T18:16:47.799Z,58.37
2023-03-04T18:19:15.837Z,57.12
2023-03-04T18:21:44.236Z,57.98
2023-03-04T18:24:10.752Z,57.87
2023-03-04T18:26:37.281Z,57.59
2023-03-04T18:29:03.759Z,57.98
2023-03-04T18:31:33.366Z,57.21
2023-03-04T18:34:04.217Z,57.37
2023-03-04T18:36:30.943Z,58.08
2023-03-04T18:38:59.402Z,57.48
2023-03-04T18:41:27.801Z,57.43
2023-03-04T18:43:54.877Z,58.37
2023-03-04T18:46:52.682Z,57.64
2023-03-04T18:49:20.443Z,58.96
2023-03-04T18:51:46.986Z,58.71
2023-03-04T18:54:13.483Z,58.71
2023-03-04T18:56:54.875Z,58.32
2023-03-04T18:59:25.025Z,58.25
2023-03-04T19:01:53.302Z,57.76
2023-03-04T19:04:22.398Z,58.30
2023-03-04T19:06:49.018Z,56.70
2023-03-04T19:09:15.541Z,57.48
2023-03-04T19:11:42.031Z,58.53
2023-03-04T19:14:08.490Z,57.29
2023-03-04T19:16:35.981Z,58.29
2023-03-04T19:19:02.527Z,57.90
2023-03-04T19:21:29.054Z,58.11
2023-03-04T19:23:55.564Z,57.46
2023-03-04T19:26:22.059Z,56.85
2023-03-04T19:28:49.503Z,57.15
2023-03-04T19:31:15.964Z,58.03
2023-03-04T19:33:42.435Z,56.99
2023-03-04T19:36:09.768Z,57.47
2023-03-04T19:38:36.682Z,58.29
2023-03-04T19:41:14.976Z,57.93
2023-03-04T19:43:41.441Z,58.30
2023-03-04T19:46:09.502Z,56.65
2023-03-04T19:48:37.234Z,58.13
2023-03-04T19:51:05.021Z,58.06
2023-03-04T19:53:34.616Z,57.59
2023-03-04T19:56:01.345Z,58.54
2023-03-04T19:58:27.825Z,57.20
2023-03-04T20:00:54.952Z,57.54
2023-03-04T20:03:22.129Z,57.10
2023-03-04T20:05:48.652Z,57.47
2023-03-04T20:08:15.159Z,57.27
2023-03-04T20:10:41.655Z,56.96
2023-03-04T20:13:08.975Z,57.30
2023-03-04T20:15:35.815Z,57.42
2023-03-04T20:18:02.433Z,56.38
2023-03-04T20:20:29.317Z,56.95
2023-03-04T20:22:56.470Z,57.27
2023-03-04T20:25:23.685Z,56.68
2023-03-04T20:27:50.390Z,55.89
2023-03-04T20:30:17.948Z,56.54
2023-03-04T20:32:45.014Z,56.46
2023-03-04T20:35:14.989Z,55.98
2023-03-04T20:37:42.315Z,55.70
2023-03-04T20:40:11.011Z,55.26
2023-03-04T20:42:37.511Z,55.09
2023-03-04T20:45:04.661Z,55.01
2023-03-04T20:47:31.290Z,55.26
2023-03-04T20:49:57.872Z,54.47
2023-03-04T20:52:24.357Z,55.06
2023-03-04T20:54:50.802Z,55.17
2023-03-04T20:57:17.276Z,55.55
2023-03-04T20:59:43.865Z,55.77
2023-03-04T21:02:13.862Z,55.39
2023-03-04T21:04:40.475Z,54.79
2023-03-04T21:07:06.941Z,54.54
2023-03-04T21:09:33.453Z,55.63
2023-03-04T21:12:01.074Z,55.43
2023-03-04T21:14:30.061Z,54.54
2023-03-04T21:16:59.387Z,54.33
2023-03-04T21:19:28.214Z,56.45
2023-03-04T21:21:55.613Z,56.53
2023-03-04T21:24:24.809Z,56.79
2023-03-04T21:26:51.504Z,57.29
2023-03-04T21:29:20.145Z,57.10
2023-03-04T21:31:49.407Z,56.90
2023-03-04T21:34:22.117Z,57.60
2023-03-04T21:36:49.004Z,57.19
2023-03-04T21:39:17.601Z,57.57
2023-03-04T21:41:44.443Z,58.94
2023-03-04T21:44:18.191Z,58.83
2023-03-04T21:46:56.408Z,60.34
2023-03-04T21:49:22.898Z,60.51
2023-03-04T21:51:49.377Z,61.89
2023-03-04T21:54:16.315Z,63.44
2023-03-04T21:56:42.919Z,64.98
2023-03-04T21:59:13.477Z,64.68
2023-03-04T22:01:41.243Z,65.89
2023-03-04T22:04:08.255Z,64.60
2023-03-04T22:06:35.249Z,64.68
2023-03-04T22:09:03.682Z,65.15
2023-03-04T22:11:30.688Z,66.34
2023-03-04T22:13:59.976Z,66.13
2023-03-04T22:16:26.925Z,65.23
2023-03-04T22:18:53.617Z,65.29
2023-03-04T22:21:21.505Z,66.88
2023-03-04T22:23:48.353Z,65.83
2023-03-04T22:26:15.761Z,66.89
2023-03-04T22:28:42.395Z,66.57
2023-03-04T22:31:31.339Z,64.63
2023-03-04T22:34:05.805Z,65.76
2023-03-04T22:36:35.436Z,65.88
2023-03-04T22:39:04.792Z,67.33
2023-03-04T22:41:32.730Z,66.53
2023-03-04T22:44:00.043Z,65.78
2023-03-04T22:46:30.803Z,66.72
2023-03-04T22:49:01.710Z,67.22
2023-03-04T22:51:28.941Z,66.41
2023-03-04T22:54:00.659Z,66.99
2023-03-04T22:56:27.751Z,66.54
2023-03-04T22:58:57.119Z,66.52
2023-03-04T23:01:24.062Z,65.89
2023-03-04T23:03:52.554Z,67.44
2023-03-04T23:06:22.421Z,66.29
2023-03-04T23:08:51.426Z,66.56
2023-03-04T23:11:27.122Z,67.44
2023-03-04T23:13:57.634Z,67.31
2023-03-04T23:16:28.918Z,67.25
2023-03-04T23:18:57.126Z,66.58
2023-03-04T23:21:25.716Z,66.13
2023-03-04T23:23:52.741Z,66.99
2023-03-04T23:26:28.429Z,66.99
2023-03-04T23:28:57.200Z,67.29
2023-03-04T23:31:25.601Z,66.43
2023-03-04T23:33:57.704Z,67.42
2023-03-04T23:36:27.197Z,66.60
2023-03-04T23:38:54.860Z,66.26
2023-03-04T23:41:24.448Z,65.29
2023-03-04T23:43:52.890Z,65.72
2023-03-04T23:46:19.633Z,66.46
2023-03-04T23:48:46.887Z,65.43
2023-03-04T23:51:19.074Z,64.44
2023-03-04T23:53:46.177Z,65.80
2023-03-04T23:56:24.323Z,65.06
2023-03-04T23:58:51.109Z,65.52
